Time;durP1;ratioP1;P1;durP2;ratioP2;P2;SDS_P1;SDS_P2;PMS_P1;PMS_P2;Temp;Humidity;BMP_temperature;BMP_pressure;BME280_temperature;BME280_humidity;BME280_pressure;Samples;Min_cycle;Max_cycle;Signal;HPM_P1;HPM_P2
2022/06/12 00:01:27;;;;;;;10.50;2.28;;;;;;;;;;4969015;28;20088;-91
2022/06/12 00:03:53;;;;;;;8.57;2.53;;;;;;;;;;4971633;28;20122;-92
2022/06/12 00:06:20;;;;;;;15.23;4.63;;;;;;;;;;4972768;28;20022;-91
2022/06/12 00:08:46;;;;;;;15.15;4.05;;;;;;;;;;4970283;28;20034;-91
2022/06/12 00:11:13;;;;;;;15.48;4.20;;;;;;;;;;4973911;28;20100;-92
2022/06/12 00:13:44;;;;;;;21.80;5.00;;;;;;;;;;4971621;28;20030;-92
2022/06/12 00:16:11;;;;;;;16.38;5.28;;;;;;;;;;4977159;28;20054;-90
2022/06/12 00:18:38;;;;;;;19.13;7.22;;;;;;;;;;4974778;28;20821;-90
2022/06/12 00:21:10;;;;;;;21.08;6.25;;;;;;;;;;4980546;28;20033;-91
2022/06/12 00:23:48;;;;;;;15.35;5.10;;;;;;;;;;4980723;28;20049;-91
2022/06/12 00:26:20;;;;;;;16.30;4.97;;;;;;;;;;4973042;28;20034;-92
2022/06/12 00:28:46;;;;;;;23.30;5.47;;;;;;;;;;4968499;28;20442;-91
2022/06/12 00:31:12;;;;;;;16.05;4.45;;;;;;;;;;4965482;28;20504;-92
2022/06/12 00:33:38;;;;;;;17.02;4.32;;;;;;;;;;4973005;28;20125;-89
2022/06/12 00:36:05;;;;;;;14.50;5.60;;;;;;;;;;4972963;28;20033;-91
2022/06/12 00:38:31;;;;;;;20.45;5.90;;;;;;;;;;4973437;28;20025;-90
2022/06/12 00:40:57;;;;;;;17.90;7.10;;;;;;;;;;4984323;28;20038;-91
2022/06/12 00:43:27;;;;;;;19.02;5.90;;;;;;;;;;4972382;28;20076;-90
2022/06/12 00:45:59;;;;;;;24.38;6.53;;;;;;;;;;4970893;28;20548;-89
2022/06/12 00:48:36;;;;;;;17.55;3.53;;;;;;;;;;4976905;28;20038;-92
2022/06/12 00:51:04;;;;;;;11.20;3.25;;;;;;;;;;4965902;28;20106;-91
2022/06/12 00:53:36;;;;;;;11.98;2.90;;;;;;;;;;4967948;28;20466;-91
2022/06/12 00:56:08;;;;;;;14.75;2.70;;;;;;;;;;4971528;28;20056;-92
2022/06/12 00:58:37;;;;;;;15.85;2.53;;;;;;;;;;4965352;28;20316;-92
2022/06/12 01:01:05;;;;;;;8.20;2.17;;;;;;;;;;4976872;28;20117;-91
2022/06/12 01:03:31;;;;;;;12.38;2.50;;;;;;;;;;4975437;28;20057;-90
2022/06/12 01:08:59;;;;;;;21.10;2.40;;;;;;;;;;4912811;29;20405;-91
2022/06/12 01:11:25;;;;;;;7.65;2.47;;;;;;;;;;4972246;28;20038;-92
2022/06/12 01:13:51;;;;;;;10.57;2.97;;;;;;;;;;4970058;28;20081;-91
2022/06/12 01:16:19;;;;;;;14.32;3.03;;;;;;;;;;4972547;28;20026;-92
2022/06/12 01:18:50;;;;;;;9.43;2.80;;;;;;;;;;4974829;28;20115;-92
2022/06/12 01:21:22;;;;;;;8.73;2.67;;;;;;;;;;4990642;28;20304;-91
2022/06/12 01:24:09;;;;;;;8.32;2.17;;;;;;;;;;4967854;28;20034;-91
2022/06/12 01:26:51;;;;;;;11.55;2.33;;;;;;;;;;4969248;28;20579;-90
2022/06/12 01:29:34;;;;;;;8.23;2.65;;;;;;;;;;4970621;28;20560;-91
2022/06/12 01:32:04;;;;;;;11.77;3.28;;;;;;;;;;4974028;28;20022;-92
2022/06/12 01:34:49;;;;;;;10.98;3.95;;;;;;;;;;4974609;28;20089;-91
2022/06/12 01:37:26;;;;;;;22.50;3.70;;;;;;;;;;4966561;28;20034;-89
2022/06/12 01:40:12;;;;;;;17.42;3.83;;;;;;;;;;4979724;28;20671;-90
2022/06/12 01:42:51;;;;;;;16.63;3.50;;;;;;;;;;4967546;28;20045;-91
2022/06/12 01:45:20;;;;;;;19.63;3.97;;;;;;;;;;4984350;28;20475;-91
2022/06/12 01:47:52;;;;;;;12.45;3.60;;;;;;;;;;4970557;28;20038;-91
2022/06/12 01:50:24;;;;;;;14.48;3.53;;;;;;;;;;4966740;28;20498;-91
2022/06/12 01:53:08;;;;;;;18.67;3.13;;;;;;;;;;4986692;28;20605;-92
2022/06/12 01:56:13;;;;;;;16.50;3.10;;;;;;;;;;4983064;28;20030;-91
2022/06/12 01:58:57;;;;;;;9.75;2.90;;;;;;;;;;4909097;29;20139;-90
2022/06/12 02:01:35;;;;;;;19.25;3.97;;;;;;;;;;4909308;29;20496;-91
2022/06/12 02:04:20;;;;;;;12.23;2.97;;;;;;;;;;4951850;28;20465;-91
2022/06/12 02:06:56;;;;;;;10.50;3.63;;;;;;;;;;4965979;28;20508;-91
2022/06/12 02:09:22;;;;;;;;;;;;;;;;;;4980254;28;20377;-91
2022/06/12 02:14:33;;;;;;;;;;;;;;;;;;4989005;28;20280;-90
2022/06/12 02:16:59;;;;;;;;;;;;;;;;;;4985011;28;19921;-92
2022/06/12 02:19:25;;;;;;;;;;;;;;;;;;4973493;28;19921;-91
2022/06/12 02:21:52;;;;;;;;;;;;;;;;;;4990895;28;19914;-92
2022/06/12 02:24:18;;;;;;;;;;;;;;;;;;4979732;28;19905;-91
2022/06/12 02:26:44;;;;;;;;;;;;;;;;;;4983877;28;20277;-92
2022/06/12 02:29:10;;;;;;;;;;;;;;;;;;4982395;28;19913;-91
2022/06/12 02:31:36;;;;;;;;;;;;;;;;;;4978913;28;19998;-92
2022/06/12 02:34:02;;;;;;;;;;;;;;;;;;4968674;28;19910;-92
2022/06/12 02:36:28;;;;;;;;;;;;;;;;;;4973483;28;19905;-92
2022/06/12 02:38:56;;;;;;;;;;;;;;;;;;4978996;28;20392;-91
2022/06/12 02:41:22;;;;;;;;;;;;;;;;;;4989004;28;19906;-92
2022/06/12 02:43:47;;;;;;;;;;;;;;;;;;4991262;28;20407;-92
2022/06/12 02:46:13;;;;;;;;;;;;;;;;;;4985226;28;19917;-91
2022/06/12 02:48:40;;;;;;;;;;;;;;;;;;4977847;28;19977;-91
2022/06/12 02:51:06;;;;;;;;;;;;;;;;;;4983044;28;20032;-92
2022/06/12 02:53:32;;;;;;;;;;;;;;;;;;4975513;28;19933;-92
2022/06/12 02:55:58;;;;;;;;;;;;;;;;;;4987238;28;19909;-92
2022/06/12 02:58:25;;;;;;;;;;;;;;;;;;4990898;28;19956;-90
2022/06/12 03:00:52;;;;;;;;;;;;;;;;;;4970649;28;19914;-90
2022/06/12 03:03:17;;;;;;;;;;;;;;;;;;4977444;28;19913;-91
2022/06/12 03:05:43;;;;;;;;;;;;;;;;;;4971728;28;19909;-92
2022/06/12 03:08:14;;;;;;;;;;;;;;;;;;4977738;28;19937;-92
2022/06/12 03:10:41;;;;;;;;;;;;;;;;;;4974419;28;19917;-92
2022/06/12 03:13:06;;;;;;;;;;;;;;;;;;4973960;28;19960;-92
2022/06/12 03:15:32;;;;;;;;;;;;;;;;;;4970973;28;19914;-93
2022/06/12 03:17:58;;;;;;;;;;;;;;;;;;4971519;28;19910;-92
2022/06/12 03:20:24;;;;;;;;;;;;;;;;;;4971543;28;19921;-92
2022/06/12 03:22:50;;;;;;;;;;;;;;;;;;4964457;28;20278;-92
2022/06/12 03:25:16;;;;;;;;;;;;;;;;;;4966985;28;19948;-92
2022/06/12 03:27:42;;;;;;;;;;;;;;;;;;4968500;28;19913;-92
2022/06/12 03:30:08;;;;;;;;;;;;;;;;;;4969803;28;19913;-92
2022/06/12 03:32:34;;;;;;;;;;;;;;;;;;4981928;28;19910;-92
2022/06/12 03:35:00;;;;;;;;;;;;;;;;;;4983181;28;19909;-91
2022/06/12 03:37:26;;;;;;;;;;;;;;;;;;4968647;28;19909;-92
2022/06/12 03:39:52;;;;;;;;;;;;;;;;;;4989506;28;20030;-92
2022/06/12 03:42:18;;;;;;;;;;;;;;;;;;4986082;28;19957;-91
2022/06/12 03:44:44;;;;;;;;;;;;;;;;;;4973982;28;20027;-93
2022/06/12 03:47:10;;;;;;;;;;;;;;;;;;4973422;28;19913;-92
2022/06/12 03:49:36;;;;;;;;;;;;;;;;;;4974620;28;19940;-93
2022/06/12 03:52:02;;;;;;;;;;;;;;;;;;4972494;28;20367;-92
2022/06/12 03:54:28;;;;;;;;;;;;;;;;;;4970920;28;19906;-92
2022/06/12 03:59:39;;;;;;;;;;;;;;;;;;4988843;28;19917;-92
2022/06/12 04:02:04;;;;;;;;;;;;;;;;;;4973630;28;19910;-92
2022/06/12 04:04:31;;;;;;;;;;;;;;;;;;4971892;28;20362;-91
2022/06/12 04:07:03;;;;;;;;;;;;;;;;;;4984046;28;19912;-92
2022/06/12 04:09:29;;;;;;;;;;;;;;;;;;4968882;28;20394;-93
2022/06/12 04:11:55;;;;;;;;;;;;;;;;;;4969340;28;19953;-92
2022/06/12 04:14:21;;;;;;;;;;;;;;;;;;4971368;28;19906;-91
2022/06/12 04:16:47;;;;;;;;;;;;;;;;;;4971316;28;19914;-92
2022/06/12 04:19:13;;;;;;;;;;;;;;;;;;4974489;28;20452;-91
2022/06/12 04:21:39;;;;;;;;;;;;;;;;;;4974745;28;19913;-92
2022/06/12 04:24:05;;;;;;;;;;;;;;;;;;4969569;28;20354;-92
2022/06/12 04:26:31;;;;;;;;;;;;;;;;;;4974868;28;19910;-92
2022/06/12 04:28:57;;;;;;;;;;;;;;;;;;4973626;28;19929;-92
2022/06/12 04:31:22;;;;;;;;;;;;;;;;;;4971828;28;19917;-90
2022/06/12 04:33:49;;;;;;;;;;;;;;;;;;4972830;28;20560;-92
2022/06/12 04:36:15;;;;;;;;;;;;;;;;;;4966293;28;19910;-92
2022/06/12 04:38:41;;;;;;;;;;;;;;;;;;4984258;28;19909;-92
2022/06/12 04:41:07;;;;;;;;;;;;;;;;;;4979235;28;19913;-93
2022/06/12 04:43:33;;;;;;;;;;;;;;;;;;4971653;28;19916;-93
2022/06/12 04:45:59;;;;;;;;;;;;;;;;;;4972986;28;19916;-93
2022/06/12 04:48:25;;;;;;;;;;;;;;;;;;4969442;28;20017;-94
2022/06/12 04:50:51;;;;;;;;;;;;;;;;;;4973930;28;19926;-93
2022/06/12 04:53:16;;;;;;;;;;;;;;;;;;4975534;28;19905;-91
2022/06/12 04:55:42;;;;;;;;;;;;;;;;;;4987148;28;19909;-93
2022/06/12 04:58:08;;;;;;;;;;;;;;;;;;4983748;28;20446;-93
2022/06/12 05:00:34;;;;;;;;;;;;;;;;;;4972539;28;19950;-93
2022/06/12 05:03:00;;;;;;;;;;;;;;;;;;4980081;28;19930;-93
2022/06/12 05:05:26;;;;;;;;;;;;;;;;;;4988952;28;19986;-93
2022/06/12 05:07:52;;;;;;;;;;;;;;;;;;4978982;28;19968;-93
2022/06/12 05:10:18;;;;;;;;;;;;;;;;;;4990299;28;19960;-89
2022/06/12 05:12:44;;;;;;;;;;;;;;;;;;4987752;28;19909;-88
2022/06/12 05:15:12;;;;;;;;;;;;;;;;;;4975780;28;19937;-88
2022/06/12 05:17:38;;;;;;;;;;;;;;;;;;4971535;28;19910;-89
2022/06/12 05:20:04;;;;;;;;;;;;;;;;;;4985665;28;19968;-88
2022/06/12 05:22:30;;;;;;;;;;;;;;;;;;4984925;28;19909;-89
2022/06/12 05:24:56;;;;;;;;;;;;;;;;;;4983311;28;19960;-88
2022/06/12 05:27:21;;;;;;;;;;;;;;;;;;4978922;28;19910;-89
2022/06/12 05:29:47;;;;;;;;;;;;;;;;;;4972768;28;19913;-89
2022/06/12 05:32:13;;;;;;;;;;;;;;;;;;4983938;28;19921;-89
2022/06/12 05:34:39;;;;;;;;;;;;;;;;;;4983337;28;19992;-89
2022/06/12 05:37:05;;;;;;;;;;;;;;;;;;4968672;28;20538;-89
2022/06/12 05:39:31;;;;;;;;;;;;;;;;;;4987138;28;19914;-90
2022/06/12 05:41:57;;;;;;;;;;;;;;;;;;4970411;28;20001;-89
2022/06/12 05:44:23;;;;;;;;;;;;;;;;;;4978297;28;19914;-89
2022/06/12 05:46:49;;;;;;;;;;;;;;;;;;4976945;28;19913;-89
2022/06/12 05:49:15;;;;;;;;;;;;;;;;;;4985339;28;19909;-89
2022/06/12 05:51:40;;;;;;;;;;;;;;;;;;4970702;28;19913;-89
2022/06/12 05:54:07;;;;;;;;;;;;;;;;;;4970690;28;20000;-89
2022/06/12 05:56:33;;;;;;;;;;;;;;;;;;4976374;28;20385;-90
2022/06/12 05:59:02;;;;;;;;;;;;;;;;;;4983621;28;19932;-89
2022/06/12 06:01:28;;;;;;;;;;;;;;;;;;4970565;28;19913;-89
2022/06/12 06:03:54;;;;;;;;;;;;;;;;;;4971917;28;19910;-90
2022/06/12 06:06:20;;;;;;;;;;;;;;;;;;4980967;28;20007;-89
2022/06/12 06:08:46;;;;;;;;;;;;;;;;;;4977679;28;19914;-90
2022/06/12 06:11:12;;;;;;;;;;;;;;;;;;4972619;28;19925;-89
2022/06/12 06:13:38;;;;;;;;;;;;;;;;;;4985682;28;19905;-90
2022/06/12 06:16:04;;;;;;;;;;;;;;;;;;4977995;28;20008;-90
2022/06/12 06:18:30;;;;;;;;;;;;;;;;;;4987753;28;19910;-89
2022/06/12 06:20:55;;;;;;;;;;;;;;;;;;4984924;28;19914;-90
2022/06/12 06:23:21;;;;;;;;;;;;;;;;;;4981845;28;19910;-90
2022/06/12 06:25:47;;;;;;;;;;;;;;;;;;4974014;28;19917;-90
2022/06/12 06:28:13;;;;;;;;;;;;;;;;;;4982104;28;19906;-90
2022/06/12 06:30:39;;;;;;;;;;;;;;;;;;4975398;28;19918;-90
2022/06/12 06:33:05;;;;;;;;;;;;;;;;;;4976574;28;19973;-91
2022/06/12 06:35:31;;;;;;;;;;;;;;;;;;4966322;28;19968;-91
2022/06/12 06:37:57;;;;;;;;;;;;;;;;;;4973417;28;19916;-90
2022/06/12 06:40:23;;;;;;;;;;;;;;;;;;4971536;28;20359;-90
2022/06/12 06:42:49;;;;;;;;;;;;;;;;;;4970744;28;20001;-89
2022/06/12 06:48:00;;;;;;;;;;;;;;;;;;4984005;28;19968;-90
2022/06/12 06:50:26;;;;;;;;;;;;;;;;;;4970720;28;19916;-90
2022/06/12 06:52:52;;;;;;;;;;;;;;;;;;4989184;28;19917;-91
2022/06/12 06:55:18;;;;;;;;;;;;;;;;;;4980487;28;19910;-90
2022/06/12 06:57:43;;;;;;;;;;;;;;;;;;4982701;28;19921;-90
2022/06/12 07:00:09;;;;;;;;;;;;;;;;;;4963233;28;20302;-91
2022/06/12 07:02:35;;;;;;;;;;;;;;;;;;4971462;28;19942;-91
2022/06/12 07:05:01;;;;;;;;;;;;;;;;;;4967602;28;19906;-90
2022/06/12 07:07:27;;;;;;;;;;;;;;;;;;4964910;28;19968;-91
2022/06/12 07:09:53;;;;;;;;;;;;;;;;;;4968885;28;19916;-91
2022/06/12 07:12:19;;;;;;;;;;;;;;;;;;4966045;28;19924;-90
2022/06/12 07:14:45;;;;;;;;;;;;;;;;;;4987269;28;20373;-90
2022/06/12 07:17:11;;;;;;;;;;;;;;;;;;4984465;28;19910;-90
2022/06/12 07:19:38;;;;;;;;;;;;;;;;;;4964793;28;19906;-90
2022/06/12 07:22:04;;;;;;;;;;;;;;;;;;4969921;28;19913;-90
2022/06/12 07:24:30;;;;;;;;;;;;;;;;;;4970270;28;19909;-90
2022/06/12 07:26:56;;;;;;;;;;;;;;;;;;4969831;28;20012;-90
2022/06/12 07:29:22;;;;;;;;;;;;;;;;;;4970817;28;19912;-91
2022/06/12 07:31:48;;;;;;;;;;;;;;;;;;4980809;28;19910;-91
2022/06/12 07:34:14;;;;;;;;;;;;;;;;;;4981711;28;19916;-91
2022/06/12 07:36:40;;;;;;;;;;;;;;;;;;4969294;28;19956;-91
2022/06/12 07:39:06;;;;;;;;;;;;;;;;;;4972957;28;20381;-90
2022/06/12 07:41:32;;;;;;;;;;;;;;;;;;4966971;28;19967;-90
2022/06/12 07:43:58;;;;;;;;;;;;;;;;;;4971537;28;19914;-90
2022/06/12 07:46:24;;;;;;;;;;;;;;;;;;4968862;28;19906;-90
2022/06/12 07:48:50;;;;;;;;;;;;;;;;;;4969377;28;19917;-90
2022/06/12 07:51:16;;;;;;;;;;;;;;;;;;4969816;28;20258;-90
2022/06/12 07:53:41;;;;;;;;;;;;;;;;;;4966772;28;19914;-90
2022/06/12 07:56:07;;;;;;;;;;;;;;;;;;4967645;28;19909;-91
2022/06/12 07:58:33;;;;;;;;;;;;;;;;;;4976572;28;20022;-91
2022/06/12 08:00:59;;;;;;;;;;;;;;;;;;4970247;28;19918;-90
2022/06/12 08:03:25;;;;;;;;;;;;;;;;;;4981468;28;20063;-90
2022/06/12 08:05:51;;;;;;;;;;;;;;;;;;4982625;28;20563;-90
2022/06/12 08:08:17;;;;;;;;;;;;;;;;;;4970708;28;19914;-90
2022/06/12 08:10:43;;;;;;;;;;;;;;;;;;4966201;28;19979;-90
2022/06/12 08:13:10;;;;;;;;;;;;;;;;;;4969108;28;19993;-90
2022/06/12 08:15:36;;;;;;;;;;;;;;;;;;4972803;28;19913;-91
2022/06/12 08:18:04;;;;;;;;;;;;;;;;;;4979003;28;19965;-90
2022/06/12 08:20:36;;;;;;;;;;;;;;;;;;4987612;28;19905;-90
2022/06/12 08:23:02;;;;;;;;;;;;;;;;;;4966967;28;19910;-91
2022/06/12 08:25:28;;;;;;;;;;;;;;;;;;4982594;28;20340;-91
2022/06/12 08:27:54;;;;;;;;;;;;;;;;;;4987755;28;19906;-91
2022/06/12 08:30:20;;;;;;;;;;;;;;;;;;4983698;28;19910;-91
2022/06/12 08:32:46;;;;;;;;;;;;;;;;;;4973140;28;20297;-90
2022/06/12 08:35:12;;;;;;;;;;;;;;;;;;4966480;28;19920;-91
2022/06/12 08:37:38;;;;;;;;;;;;;;;;;;4973284;28;19917;-89
2022/06/12 08:40:04;;;;;;;;;;;;;;;;;;4985718;28;20009;-90
2022/06/12 08:42:30;;;;;;;;;;;;;;;;;;4974408;28;20293;-90
2022/06/12 08:44:56;;;;;;;;;;;;;;;;;;4980397;28;20318;-90
2022/06/12 08:47:21;;;;;;;;;;;;;;;;;;4972399;28;19917;-90
2022/06/12 08:49:47;;;;;;;;;;;;;;;;;;4971983;28;20287;-91
2022/06/12 08:52:13;;;;;;;;;;;;;;;;;;4975828;28;19918;-90
2022/06/12 08:54:39;;;;;;;;;;;;;;;;;;4972499;28;19917;-91
2022/06/12 08:57:05;;;;;;;;;;;;;;;;;;4968060;28;20301;-90
2022/06/12 08:59:31;;;;;;;;;;;;;;;;;;4970753;28;19910;-90
2022/06/12 09:01:57;;;;;;;;;;;;;;;;;;4971674;28;20352;-90
2022/06/12 09:04:23;;;;;;;;;;;;;;;;;;4973152;28;19906;-90
2022/06/12 09:06:49;;;;;;;;;;;;;;;;;;4972424;28;19909;-89
2022/06/12 09:09:15;;;;;;;;;;;;;;;;;;4971046;28;20012;-90
2022/06/12 09:11:41;;;;;;;;;;;;;;;;;;4972607;28;19917;-89
2022/06/12 09:14:07;;;;;;;;;;;;;;;;;;4973759;28;20263;-90
2022/06/12 09:16:33;;;;;;;;;;;;;;;;;;4970234;28;20337;-90
2022/06/12 09:18:59;;;;;;;;;;;;;;;;;;4973902;28;19906;-90
2022/06/12 09:21:24;;;;;;;;;;;;;;;;;;4974225;28;19906;-89
2022/06/12 09:23:50;;;;;;;;;;;;;;;;;;4977367;28;20022;-89
2022/06/12 09:26:17;;;;;;;;;;;;;;;;;;4975693;28;19914;-90
2022/06/12 09:28:43;;;;;;;;;;;;;;;;;;4969365;28;19914;-90
2022/06/12 09:31:09;;;;;;;;;;;;;;;;;;4968273;28;19914;-89
2022/06/12 09:33:35;;;;;;;;;;;;;;;;;;4973468;28;20349;-92
2022/06/12 09:36:01;;;;;;;;;;;;;;;;;;4985098;28;19913;-89
2022/06/12 09:38:27;;;;;;;;;;;;;;;;;;4972318;28;19920;-89
2022/06/12 09:40:53;;;;;;;;;;;;;;;;;;4972257;28;19906;-90
2022/06/12 09:43:18;;;;;;;;;;;;;;;;;;4972643;28;19910;-90
2022/06/12 09:45:44;;;;;;;;;;;;;;;;;;4975695;28;19913;-90
2022/06/12 09:48:10;;;;;;;;;;;;;;;;;;4972347;28;20289;-91
2022/06/12 09:50:36;;;;;;;;;;;;;;;;;;4970303;28;19925;-90
2022/06/12 09:53:02;;;;;;;;;;;;;;;;;;4974832;28;20059;-90
2022/06/12 09:55:28;;;;;;;;;;;;;;;;;;4971497;28;19910;-91
2022/06/12 09:57:54;;;;;;;;;;;;;;;;;;4973994;28;19944;-90
2022/06/12 10:00:22;;;;;;;;;;;;;;;;;;4982676;28;19921;-90
2022/06/12 10:02:49;;;;;;;;;;;;;;;;;;4976230;28;19917;-91
2022/06/12 10:05:15;;;;;;;;;;;;;;;;;;4971641;28;20397;-91
2022/06/12 10:07:42;;;;;;;;;;;;;;;;;;4965738;28;19932;-91
2022/06/12 10:10:09;;;;;;;;;;;;;;;;;;4984996;28;20387;-90
2022/06/12 10:12:36;;;;;;;;;;;;;;;;;;4982936;28;19913;-91
2022/06/12 10:15:02;;;;;;;;;;;;;;;;;;4979721;28;20333;-90
2022/06/12 10:17:30;;;;;;;;;;;;;;;;;;4966597;28;19916;-89
2022/06/12 10:19:56;;;;;;;;;;;;;;;;;;4983850;28;19914;-89
2022/06/12 10:22:22;;;;;;;;;;;;;;;;;;4978615;28;19910;-90
2022/06/12 10:24:48;;;;;;;;;;;;;;;;;;4975425;28;19921;-89
2022/06/12 10:27:14;;;;;;;;;;;;;;;;;;4988779;28;19913;-90
2022/06/12 10:29:40;;;;;;;;;;;;;;;;;;4983876;28;20175;-89
2022/06/12 10:32:06;;;;;;;;;;;;;;;;;;4971820;28;19949;-90
2022/06/12 10:34:32;;;;;;;;;;;;;;;;;;4986522;28;19960;-90
2022/06/12 10:37:06;;;;;;;;;;;;;;;;;;4980104;28;20037;-89
2022/06/12 10:39:32;;;;;;;;;;;;;;;;;;4982563;28;19909;-90
2022/06/12 10:41:58;;;;;;;;;;;;;;;;;;4976218;28;19964;-90
2022/06/12 10:44:24;;;;;;;;;;;;;;;;;;4987256;28;19910;-89
2022/06/12 10:46:50;;;;;;;;;;;;;;;;;;4970405;28;19997;-90
2022/06/12 10:49:16;;;;;;;;;;;;;;;;;;4982147;28;19910;-90
2022/06/12 10:51:42;;;;;;;;;;;;;;;;;;4970015;28;20010;-91
2022/06/12 10:54:07;;;;;;;;;;;;;;;;;;4971571;28;19990;-89
2022/06/12 10:56:33;;;;;;;;;;;;;;;;;;4975235;28;19909;-89
2022/06/12 10:59:00;;;;;;;;;;;;;;;;;;4986788;28;19918;-90
2022/06/12 11:01:26;;;;;;;;;;;;;;;;;;4967850;28;20134;-90
2022/06/12 11:03:51;;;;;;;;;;;;;;;;;;4987191;28;20020;-89
2022/06/12 11:06:17;;;;;;;;;;;;;;;;;;4975787;28;19921;-90
2022/06/12 11:08:43;;;;;;;;;;;;;;;;;;4969858;28;20016;-90
2022/06/12 11:11:09;;;;;;;;;;;;;;;;;;4973152;28;19943;-90
2022/06/12 11:13:35;;;;;;;;;;;;;;;;;;4970862;28;19956;-92
2022/06/12 11:16:01;;;;;;;;;;;;;;;;;;4968483;28;20001;-89
2022/06/12 11:18:27;;;;;;;;;;;;;;;;;;4971360;28;20012;-91
2022/06/12 11:20:53;;;;;;;;;;;;;;;;;;4969516;28;19968;-90
2022/06/12 11:23:19;;;;;;;;;;;;;;;;;;4969334;28;20012;-90
2022/06/12 11:25:45;;;;;;;;;;;;;;;;;;4972000;28;19997;-90
2022/06/12 11:28:11;;;;;;;;;;;;;;;;;;4970521;28;19949;-90
2022/06/12 11:30:37;;;;;;;;;;;;;;;;;;4973794;28;19917;-91
2022/06/12 11:33:03;;;;;;;;;;;;;;;;;;4972485;28;19912;-93
2022/06/12 11:35:28;;;;;;;;;;;;;;;;;;4969230;28;19913;-91
2022/06/12 11:37:54;;;;;;;;;;;;;;;;;;4970944;28;20285;-91
2022/06/12 11:40:21;;;;;;;;;;;;;;;;;;4964222;28;19909;-89
2022/06/12 11:42:47;;;;;;;;;;;;;;;;;;4985899;28;19953;-91
2022/06/12 11:45:13;;;;;;;;;;;;;;;;;;4970341;28;19949;-90
2022/06/12 11:47:38;;;;;;;;;;;;;;;;;;4986321;28;20369;-91
2022/06/12 11:50:04;;;;;;;;;;;;;;;;;;4964839;28;20009;-89
2022/06/12 11:52:30;;;;;;;;;;;;;;;;;;4970694;28;19928;-89
2022/06/12 11:54:56;;;;;;;;;;;;;;;;;;4974520;28;20006;-89
2022/06/12 11:57:22;;;;;;;;;;;;;;;;;;4972994;28;19937;-90
2022/06/12 11:59:48;;;;;;;;;;;;;;;;;;4992258;28;19921;-90
2022/06/12 12:02:14;;;;;;;;;;;;;;;;;;4971826;28;20015;-89
2022/06/12 12:04:40;;;;;;;;;;;;;;;;;;4997339;28;19906;-92
2022/06/12 12:07:06;;;;;;;;;;;;;;;;;;4970197;28;19925;-89
2022/06/12 12:09:32;;;;;;;;;;;;;;;;;;4971739;28;19913;-89
2022/06/12 12:11:58;;;;;;;;;;;;;;;;;;4985039;28;19918;-94
2022/06/12 12:14:24;;;;;;;;;;;;;;;;;;4973622;28;20104;-89
2022/06/12 12:16:49;;;;;;;;;;;;;;;;;;4977045;28;19913;-89
2022/06/12 12:19:15;;;;;;;;;;;;;;;;;;4973663;28;20340;-89
2022/06/12 12:21:41;;;;;;;;;;;;;;;;;;4976686;28;20004;-91
2022/06/12 12:24:07;;;;;;;;;;;;;;;;;;4983346;28;19952;-88
2022/06/12 12:26:35;;;;;;;;;;;;;;;;;;4983445;28;19925;-93
2022/06/12 12:29:00;;;;;;;;;;;;;;;;;;4975002;28;19959;-89
2022/06/12 12:31:26;;;;;;;;;;;;;;;;;;4972387;28;19953;-89
2022/06/12 12:33:53;;;;;;;;;;;;;;;;;;4973296;28;19909;-90
2022/06/12 12:41:48;;;;;;;;;;;;;;;;;;4986387;28;20018;-88
2022/06/12 12:44:14;;;;;;;;;;;;;;;;;;4970409;28;19914;-90
2022/06/12 12:46:40;;;;;;;;;;;;;;;;;;4987287;28;19905;-89
2022/06/12 12:49:06;;;;;;;;;;;;;;;;;;4971654;28;20140;-89
2022/06/12 12:51:32;;;;;;;;;;;;;;;;;;4986970;28;19914;-90
2022/06/12 12:53:58;;;;;;;;;;;;;;;;;;4969752;28;20572;-91
2022/06/12 12:56:24;;;;;;;;;;;;;;;;;;4988646;28;20342;-91
2022/06/12 12:58:50;;;;;;;;;;;;;;;;;;4973991;28;19921;-90
2022/06/12 13:01:17;;;;;;;;;;;;;;;;;;4988180;28;19917;-89
2022/06/12 13:03:43;;;;;;;;;;;;;;;;;;4972002;28;19910;-90
2022/06/12 13:06:09;;;;;;;;;;;;;;;;;;4988580;28;19906;-90
2022/06/12 13:08:34;;;;;;;;;;;;;;;;;;4970588;28;19937;-89
2022/06/12 13:11:00;;;;;;;;;;;;;;;;;;4972399;28;19917;-89
2022/06/12 13:13:26;;;;;;;;;;;;;;;;;;4976481;28;19917;-90
2022/06/12 13:15:52;;;;;;;;;;;;;;;;;;4969854;28;19914;-89
2022/06/12 13:18:18;;;;;;;;;;;;;;;;;;4970009;28;19921;-89
2022/06/12 13:20:44;;;;;;;;;;;;;;;;;;4974616;28;19968;-89
2022/06/12 13:23:10;;;;;;;;;;;;;;;;;;4971021;28;19909;-89
2022/06/12 13:25:36;;;;;;;;;;;;;;;;;;4973147;28;20012;-89
2022/06/12 13:28:02;;;;;;;;;;;;;;;;;;4973038;28;20009;-90
2022/06/12 13:30:28;;;;;;;;;;;;;;;;;;4971317;28;19916;-91
2022/06/12 13:32:54;;;;;;;;;;;;;;;;;;4982661;28;19917;-90
2022/06/12 13:35:19;;;;;;;;;;;;;;;;;;4973871;28;20393;-90
2022/06/12 13:37:45;;;;;;;;;;;;;;;;;;4971095;28;19921;-91
2022/06/12 13:40:11;;;;;;;;;;;;;;;;;;4971084;28;19913;-89
2022/06/12 13:42:37;;;;;;;;;;;;;;;;;;4985799;28;20317;-89
2022/06/12 13:45:04;;;;;;;;;;;;;;;;;;4971825;28;19914;-89
2022/06/12 13:47:31;;;;;;;;;;;;;;;;;;4968552;28;20401;-91
2022/06/12 13:49:57;;;;;;;;;;;;;;;;;;4963079;28;19920;-90
2022/06/12 13:52:22;;;;;;;;;;;;;;;;;;4970589;28;20445;-90
2022/06/12 13:54:48;;;;;;;;;;;;;;;;;;4970335;28;20147;-89
2022/06/12 13:57:17;;;;;;;;;;;;;;;;;;4973225;28;19993;-89
2022/06/12 13:59:44;;;;;;;;;;;;;;;;;;4971340;28;19918;-89
2022/06/12 14:02:10;;;;;;;;;;;;;;;;;;4969746;28;19933;-89
2022/06/12 14:04:36;;;;;;;;;;;;;;;;;;4973474;28;19913;-89
2022/06/12 14:07:08;;;;;;;;;;;;;;;;;;4972157;28;19917;-89
2022/06/12 14:09:34;;;;;;;;;;;;;;;;;;4987593;28;20376;-89
2022/06/12 14:12:00;;;;;;;;;;;;;;;;;;4987167;28;19909;-90
2022/06/12 14:14:26;;;;;;;;;;;;;;;;;;4975110;28;20112;-90
2022/06/12 14:16:54;;;;;;;;;;;;;;;;;;4969053;28;20374;-89
2022/06/12 14:19:20;;;;;;;;;;;;;;;;;;4973477;28;19917;-90
2022/06/12 14:21:46;;;;;;;;;;;;;;;;;;4970650;28;19913;-89
2022/06/12 14:24:12;;;;;;;;;;;;;;;;;;4966791;28;19910;-90
2022/06/12 14:26:38;;;;;;;;;;;;;;;;;;4970648;28;19914;-90
2022/06/12 14:29:03;;;;;;;;;;;;;;;;;;4970059;28;19992;-89
2022/06/12 14:31:29;;;;;;;;;;;;;;;;;;4988840;28;20409;-91
2022/06/12 14:33:56;;;;;;;;;;;;;;;;;;4970557;28;19943;-90
2022/06/12 14:36:21;;;;;;;;;;;;;;;;;;4971104;28;19909;-89
2022/06/12 14:38:47;;;;;;;;;;;;;;;;;;4969171;28;19909;-89
2022/06/12 14:41:13;;;;;;;;;;;;;;;;;;4970250;28;19945;-89
2022/06/12 14:43:39;;;;;;;;;;;;;;;;;;4968944;28;20284;-89
2022/06/12 14:46:05;;;;;;;;;;;;;;;;;;4981917;28;19921;-88
2022/06/12 14:48:31;;;;;;;;;;;;;;;;;;4969108;28;20058;-89
2022/06/12 14:50:57;;;;;;;;;;;;;;;;;;4968292;28;19985;-88
2022/06/12 14:53:23;;;;;;;;;;;;;;;;;;4974956;28;19913;-90
2022/06/12 14:55:49;;;;;;;;;;;;;;;;;;4974143;28;19923;-90
2022/06/12 14:58:15;;;;;;;;;;;;;;;;;;4970834;28;20402;-89
2022/06/12 15:00:41;;;;;;;;;;;;;;;;;;4981133;28;20461;-89
2022/06/12 15:03:06;;;;;;;;;;;;;;;;;;4968479;28;19968;-89
2022/06/12 15:05:32;;;;;;;;;;;;;;;;;;4976930;28;19952;-89
2022/06/12 15:07:58;;;;;;;;;;;;;;;;;;4969171;28;20004;-89
2022/06/12 15:10:24;;;;;;;;;;;;;;;;;;4968178;28;19931;-89
2022/06/12 15:12:50;;;;;;;;;;;;;;;;;;4967816;28;20148;-90
2022/06/12 15:15:16;;;;;;;;;;;;;;;;;;4978394;28;19913;-89
2022/06/12 15:17:42;;;;;;;;;;;;;;;;;;4968380;28;20366;-88
2022/06/12 15:20:08;;;;;;;;;;;;;;;;;;4979374;28;19906;-89
2022/06/12 15:22:34;;;;;;;;;;;;;;;;;;4969685;28;19921;-89
2022/06/12 15:25:01;;;;;;;;;;;;;;;;;;4964005;28;19914;-89
2022/06/12 15:30:15;;;;;;;;;;;;;;;;;;4981680;28;20157;-88
2022/06/12 15:32:41;;;;;;;;;;;;;;;;;;4985449;28;20289;-89
2022/06/12 15:35:07;;;;;;;;;;;;;;;;;;4973396;28;19916;-90
2022/06/12 15:37:33;;;;;;;;;;;;;;;;;;4976206;28;20005;-89
2022/06/12 15:39:59;;;;;;;;;;;;;;;;;;4982940;28;19920;-88
2022/06/12 15:42:25;;;;;;;;;;;;;;;;;;4988189;28;19909;-89
2022/06/12 15:44:51;;;;;;;;;;;;;;;;;;4991703;28;20285;-89
2022/06/12 15:47:17;;;;;;;;;;;;;;;;;;4975137;28;19940;-89
2022/06/12 15:49:43;;;;;;;;;;;;;;;;;;4974598;28;19997;-89
2022/06/12 15:52:09;;;;;;;;;;;;;;;;;;4972903;28;20038;-89
2022/06/12 15:54:35;;;;;;;;;;;;;;;;;;4994685;28;20334;-93
2022/06/12 15:57:01;;;;;;;;;;;;;;;;;;4972530;28;19910;-92
2022/06/12 15:59:27;;;;;;;;;;;;;;;;;;4977317;28;20391;-92
2022/06/12 16:01:53;;;;;;;;;;;;;;;;;;4984423;28;19964;-92
2022/06/12 16:04:19;;;;;;;;;;;;;;;;;;4991505;28;19917;-93
2022/06/12 16:06:44;;;;;;;;;;;;;;;;;;4975137;28;20333;-93
2022/06/12 16:09:10;;;;;;;;;;;;;;;;;;4976707;28;19909;-93
2022/06/12 16:11:36;;;;;;;;;;;;;;;;;;4974187;28;20015;-92
2022/06/12 16:14:02;;;;;;;;;;;;;;;;;;4976806;28;19906;-93
2022/06/12 16:16:28;;;;;;;;;;;;;;;;;;4974945;28;19906;-93
2022/06/12 16:18:54;;;;;;;;;;;;;;;;;;4990072;28;19918;-92
2022/06/12 16:21:20;;;;;;;;;;;;;;;;;;4994573;28;19945;-93
2022/06/12 16:23:46;;;;;;;;;;;;;;;;;;4973624;28;19916;-93
2022/06/12 16:26:13;;;;;;;;;;;;;;;;;;4990785;28;19913;-91
2022/06/12 16:28:39;;;;;;;;;;;;;;;;;;4988699;28;19917;-91
2022/06/12 16:31:05;;;;;;;;;;;;;;;;;;4987129;28;20015;-92
2022/06/12 16:33:31;;;;;;;;;;;;;;;;;;4985858;28;19910;-91
2022/06/12 16:35:57;;;;;;;;;;;;;;;;;;4980058;28;19920;-92
2022/06/12 16:38:23;;;;;;;;;;;;;;;;;;4990578;28;19925;-95
2022/06/12 16:40:50;;;;;;;;;;;;;;;;;;4985864;28;19913;-91
2022/06/12 16:43:16;;;;;;;;;;;;;;;;;;4976854;28;20413;-91